Time;durP1;ratioP1;P1;durP2;ratioP2;P2;SDS_P1;SDS_P2;PMS_P1;PMS_P2;Temp;Humidity;BMP_temperature;BMP_pressure;BME280_temperature;BME280_humidity;BME280_pressure;Samples;Min_cycle;Max_cycle;Signal;HPM_P1;HPM_P2
2021/09/30 00:02:14;;;;;;;1.83;0.60;;;;;;;12.11;68.28;101512.69;4966319;28;20400;-74
2021/09/30 00:04:40;;;;;;;2.70;0.80;;;;;;;12.14;68.76;101508.69;4974641;28;20416;-74
2021/09/30 00:07:07;;;;;;;2.17;0.40;;;;;;;12.16;68.74;101506.56;4994051;28;20936;-74
2021/09/30 00:09:34;;;;;;;3.35;0.82;;;;;;;12.17;68.80;101502.78;4975339;28;20419;-74
2021/09/30 00:12:07;;;;;;;3.78;0.65;;;;;;;12.17;68.46;101510.94;4975326;28;20400;-74
2021/09/30 00:14:44;;;;;;;0.93;0.55;;;;;;;12.13;68.92;101510.56;4967442;28;20418;-74
2021/09/30 00:33:55;;;;;;;3.92;0.77;;;;;;;11.90;69.81;101519.44;4973781;28;20918;-74
2021/09/30 00:41:43;;;;;;;1.10;0.55;;;;;;;11.83;70.07;101528.72;4973022;28;20748;-74
2021/09/30 01:18:24;;;;;;;3.40;0.50;;;;;;;11.84;69.87;101538.53;4974254;28;20411;-74
2021/09/30 02:18:22;;;;;;;3.50;0.80;;;;;;;11.17;71.45;101569.22;4964727;28;20459;-74
2021/09/30 02:28:58;;;;;;;4.03;1.15;;;;;;;11.28;71.57;101563.94;4972305;28;20498;-74
2021/09/30 02:39:51;;;;;;;5.63;2.53;;;;;;;11.31;71.39;101558.06;4971823;28;20481;-74
2021/09/30 02:58:56;;;;;;;4.13;1.17;;;;;;;11.20;71.69;101571.50;4972264;28;20443;-74
2021/09/30 03:01:23;;;;;;;4.70;1.37;;;;;;;11.21;71.72;101573.16;4972173;28;20400;-74
2021/09/30 03:03:53;;;;;;;2.60;1.10;;;;;;;11.19;71.76;101569.84;4970822;28;20459;-73
2021/09/30 03:06:20;;;;;;;4.30;1.20;;;;;;;11.10;71.63;101573.91;4957108;28;20395;-74
2021/09/30 03:08:49;;;;;;;2.35;1.15;;;;;;;11.01;71.83;101575.22;4975420;28;20408;-74
2021/09/30 03:11:16;;;;;;;5.93;2.10;;;;;;;11.02;71.79;101572.28;4972600;28;20472;-74
2021/09/30 03:13:44;;;;;;;5.03;1.60;;;;;;;10.99;71.95;101572.75;4971984;28;20404;-74
2021/09/30 03:18:57;;;;;;;4.80;1.45;;;;;;;10.99;71.82;101586.31;4958146;28;20766;-74
2021/09/30 03:24:10;;;;;;;4.00;1.08;;;;;;;10.97;71.87;101596.50;4958939;28;20394;-74
2021/09/30 03:26:37;;;;;;;2.50;0.77;;;;;;;10.95;72.32;101598.63;4972261;28;20490;-74
2021/09/30 03:29:03;;;;;;;4.23;1.20;;;;;;;10.98;72.11;101595.47;4972047;28;20503;-74
2021/09/30 03:31:31;;;;;;;5.03;1.10;;;;;;;10.99;72.00;101594.44;4972264;28;20399;-74
2021/09/30 03:33:56;;;;;;;6.43;1.40;;;;;;;10.95;72.05;101595.91;4969886;28;20451;-74
2021/09/30 03:36:22;;;;;;;5.80;1.23;;;;;;;10.96;72.11;101602.19;4974761;28;20466;-74
2021/09/30 03:38:47;;;;;;;2.47;0.97;;;;;;;10.94;71.96;101600.50;4962678;28;20406;-74
2021/09/30 03:41:12;;;;;;;2.50;1.23;;;;;;;10.92;71.94;101590.94;4975188;28;20411;-74
2021/09/30 03:43:38;;;;;;;4.80;1.20;;;;;;;10.85;72.28;101601.84;4975806;28;20400;-74
2021/09/30 03:46:03;;;;;;;3.43;0.90;;;;;;;10.84;72.48;101599.31;5006762;28;20412;-74
2021/09/30 03:48:28;;;;;;;2.33;1.00;;;;;;;10.84;72.42;101594.72;4970932;28;20406;-74
2021/09/30 03:51:17;;;;;;;2.57;1.10;;;;;;;10.82;72.09;101602.28;4959007;28;20461;-74
2021/09/30 03:53:52;;;;;;;2.17;1.00;;;;;;;10.83;72.40;101601.19;4955041;29;20405;-74
2021/09/30 04:01:29;;;;;;;3.78;1.20;;;;;;;10.90;72.17;101599.28;4960816;28;20442;-74
2021/09/30 04:03:54;;;;;;;4.57;1.30;;;;;;;10.86;72.18;101603.50;4974166;28;20419;-74
2021/09/30 04:06:20;;;;;;;5.77;1.40;;;;;;;10.88;72.22;101593.25;4974971;28;20403;-74
2021/09/30 04:08:47;;;;;;;2.03;1.13;;;;;;;10.87;72.26;101591.59;4975227;28;20396;-74
2021/09/30 04:11:12;;;;;;;3.10;0.90;;;;;;;10.87;72.17;101594.28;4971432;28;20404;-74
2021/09/30 04:13:37;;;;;;;4.67;0.97;;;;;;;10.88;72.30;101604.09;4963413;28;20442;-74
2021/09/30 04:16:03;;;;;;;5.80;1.25;;;;;;;10.90;72.40;101602.00;4974929;28;20775;-74
2021/09/30 04:18:29;;;;;;;4.20;0.98;;;;;;;10.96;72.46;101602.19;4974439;28;20411;-74
2021/09/30 04:20:55;;;;;;;1.48;0.73;;;;;;;11.08;71.96;101606.66;4969524;28;20424;-74
2021/09/30 04:23:20;;;;;;;2.60;1.08;;;;;;;11.11;71.80;101602.69;4974391;28;20414;-73
2021/09/30 04:25:46;;;;;;;1.52;1.00;;;;;;;11.10;71.92;101599.13;4967458;28;20420;-73
2021/09/30 04:28:12;;;;;;;3.58;1.40;;;;;;;11.10;71.88;101601.03;5006178;28;20447;-74
2021/09/30 04:30:37;;;;;;;4.67;2.00;;;;;;;11.15;71.94;101612.88;4974991;28;20399;-74
2021/09/30 04:33:05;;;;;;;6.00;1.10;;;;;;;11.14;71.71;101610.38;4962872;28;20498;-74
2021/09/30 04:35:31;;;;;;;2.50;1.08;;;;;;;11.09;72.05;101608.34;4972526;28;20426;-74
2021/09/30 04:37:56;;;;;;;1.60;0.60;;;;;;;11.05;72.55;101611.69;4967557;28;20553;-74
2021/09/30 04:40:21;;;;;;;2.03;0.60;;;;;;;11.05;72.33;101614.41;4966718;28;20477;-74
2021/09/30 04:42:46;;;;;;;2.30;1.25;;;;;;;11.01;72.26;101614.03;4966607;28;20416;-74
2021/09/30 04:45:12;;;;;;;5.03;0.87;;;;;;;10.98;72.55;101611.75;4971169;28;20423;-74
2021/09/30 04:47:38;;;;;;;3.93;1.03;;;;;;;10.99;72.60;101624.28;4966802;28;20555;-74
2021/09/30 04:50:04;;;;;;;3.92;1.50;;;;;;;10.99;72.30;101615.31;4987200;28;20409;-74
2021/09/30 04:52:29;;;;;;;2.00;1.10;;;;;;;10.97;72.54;101622.81;5003004;28;20439;-74
2021/09/30 04:54:55;;;;;;;1.30;1.10;;;;;;;10.93;72.64;101619.72;4969221;28;20493;-74
2021/09/30 04:57:20;;;;;;;1.60;0.90;;;;;;;10.84;72.66;101631.88;4967963;28;20510;-74
2021/09/30 04:59:45;;;;;;;3.22;1.00;;;;;;;10.78;72.91;101632.75;4971237;28;20822;-74
2021/09/30 05:02:11;;;;;;;1.93;0.90;;;;;;;10.76;72.94;101632.13;4969559;28;20531;-74
2021/09/30 05:04:36;;;;;;;3.70;1.00;;;;;;;10.73;72.94;101630.69;4959774;28;20425;-75
2021/09/30 05:07:01;;;;;;;2.27;0.80;;;;;;;10.71;73.42;101629.22;4964652;28;20419;-74
2021/09/30 05:09:28;;;;;;;3.37;1.20;;;;;;;10.68;73.32;101635.94;4976249;28;20416;-74
2021/09/30 05:11:58;;;;;;;3.00;1.10;;;;;;;10.62;73.65;101634.09;4976606;28;20413;-74
2021/09/30 05:14:24;;;;;;;4.10;1.10;;;;;;;10.60;73.54;101632.66;4980908;28;20531;-74
2021/09/30 05:16:51;;;;;;;4.93;1.10;;;;;;;10.57;74.01;101635.78;4972219;28;20877;-75
2021/09/30 05:19:17;;;;;;;4.95;1.25;;;;;;;10.56;74.26;101634.13;4963085;28;20519;-74
2021/09/30 05:21:42;;;;;;;4.90;1.20;;;;;;;10.52;74.32;101633.72;4967632;28;20506;-75
2021/09/30 05:24:07;;;;;;;5.37;1.30;;;;;;;10.50;74.21;101633.13;4963819;28;20415;-74
2021/09/30 05:26:33;;;;;;;2.80;1.10;;;;;;;10.50;74.60;101638.53;4972058;28;20475;-74
2021/09/30 05:29:00;;;;;;;4.63;1.37;;;;;;;10.49;74.44;101636.88;4965310;28;20425;-74
2021/09/30 05:31:26;;;;;;;3.05;1.38;;;;;;;10.51;74.55;101634.75;4969169;28;20400;-75
2021/09/30 05:33:51;;;;;;;2.85;1.58;;;;;;;10.53;74.15;101634.56;4963163;28;20440;-75
2021/09/30 05:36:18;;;;;;;3.30;1.10;;;;;;;10.55;74.18;101630.56;4969147;28;20424;-74
2021/09/30 05:38:43;;;;;;;3.83;1.35;;;;;;;10.59;74.18;101633.69;5002989;28;20412;-75
2021/09/30 05:41:09;;;;;;;1.88;1.00;;;;;;;10.60;74.00;101641.63;4970693;28;20407;-75
2021/09/30 05:43:36;;;;;;;4.10;1.10;;;;;;;10.62;73.99;101641.38;4987914;28;20415;-76
2021/09/30 05:46:03;;;;;;;2.47;1.05;;;;;;;10.59;74.02;101641.81;4968560;28;20483;-75
2021/09/30 05:48:29;;;;;;;3.25;1.20;;;;;;;10.61;74.15;101645.97;4970322;28;20483;-75
2021/09/30 05:50:56;;;;;;;2.00;1.10;;;;;;;10.64;73.98;101650.13;4971378;28;21019;-75
2021/09/30 05:53:21;;;;;;;2.38;1.15;;;;;;;10.61;73.90;101654.09;4978508;28;20409;-75
2021/09/30 05:55:47;;;;;;;3.58;1.30;;;;;;;10.63;74.10;101659.31;4971816;28;20435;-75
2021/09/30 05:58:13;;;;;;;2.05;1.10;;;;;;;10.60;73.80;101651.63;4971675;28;20420;-75
2021/09/30 06:08:44;;;;;;;2.80;1.58;;;;;;;10.67;73.78;101653.22;4968546;28;20407;-74
2021/09/30 06:14:22;;;;;;;1.58;1.15;;;;;;;10.62;74.16;101650.34;4965575;28;20752;-74
2021/09/30 06:16:50;;;;;;;2.90;1.52;;;;;;;10.66;74.19;101645.34;4973834;28;20408;-74
2021/09/30 06:19:22;;;;;;;4.95;2.88;;;;;;;10.63;74.11;101648.47;4969679;28;20412;-76
2021/09/30 06:21:52;;;;;;;3.53;2.80;;;;;;;10.59;74.30;101656.22;4964472;28;20443;-76
2021/09/30 06:24:19;;;;;;;8.43;2.20;;;;;;;10.63;73.95;101653.91;4969912;28;20440;-76
2021/09/30 06:26:45;;;;;;;2.67;1.40;;;;;;;10.67;73.74;101655.13;4972075;28;20454;-76
2021/09/30 06:29:11;;;;;;;4.30;1.83;;;;;;;10.68;74.13;101659.50;4972003;28;20414;-75
2021/09/30 06:31:36;;;;;;;6.13;2.25;;;;;;;10.69;74.27;101659.28;4965267;28;20410;-75
2021/09/30 06:34:02;;;;;;;6.70;2.73;;;;;;;10.68;74.42;101668.47;4955062;28;20459;-74
2021/09/30 06:36:28;;;;;;;4.47;1.92;;;;;;;10.66;74.53;101667.84;4953684;28;20520;-75
2021/09/30 06:38:53;;;;;;;10.00;2.70;;;;;;;10.64;74.71;101671.81;4952191;28;20412;-75
2021/09/30 06:41:18;;;;;;;2.53;1.70;;;;;;;10.68;74.79;101673.88;4952890;28;21767;-75
2021/09/30 06:43:44;;;;;;;4.05;1.65;;;;;;;10.73;74.74;101667.81;4955173;28;20512;-75
2021/09/30 06:46:09;;;;;;;3.40;1.13;;;;;;;10.74;74.71;101670.31;4962563;28;20420;-74
2021/09/30 06:48:34;;;;;;;5.33;1.33;;;;;;;10.75;74.71;101665.72;4971034;28;20866;-74
2021/09/30 06:50:59;;;;;;;2.10;1.10;;;;;;;10.76;74.76;101668.22;4964506;28;20416;-75
2021/09/30 06:53:25;;;;;;;3.03;1.10;;;;;;;10.72;75.04;101667.00;4966674;28;20415;-75
2021/09/30 06:55:50;;;;;;;4.97;1.10;;;;;;;10.77;74.79;101677.16;4969995;28;20426;-75
2021/09/30 06:58:15;;;;;;;3.83;1.23;;;;;;;10.79;74.67;101684.06;4966442;28;20468;-74
2021/09/30 07:00:42;;;;;;;4.83;1.13;;;;;;;10.83;74.52;101684.47;4981012;28;20429;-74
2021/09/30 07:03:08;;;;;;;3.40;1.13;;;;;;;10.93;74.32;101684.81;4965780;28;20783;-75
2021/09/30 07:05:34;;;;;;;3.35;0.95;;;;;;;10.94;74.03;101687.28;4971818;28;20404;-74
2021/09/30 07:08:05;;;;;;;1.65;1.05;;;;;;;11.02;73.80;101690.81;4973500;28;20879;-75
2021/09/30 07:10:30;;;;;;;2.45;1.23;;;;;;;11.08;73.81;101690.78;4969798;28;20757;-74
2021/09/30 07:12:56;;;;;;;5.40;1.88;;;;;;;11.11;73.90;101692.19;4975650;28;20404;-74
2021/09/30 07:15:21;;;;;;;3.03;1.20;;;;;;;11.26;73.51;101698.19;4970507;28;20821;-74
2021/09/30 07:17:47;;;;;;;4.97;1.07;;;;;;;11.39;73.45;101698.88;4970947;28;20447;-75
2021/09/30 07:20:13;;;;;;;5.37;1.60;;;;;;;11.51;73.00;101701.75;4975376;28;20412;-75
2021/09/30 07:22:38;;;;;;;7.25;1.27;;;;;;;11.57;72.82;101703.56;4976790;28;20759;-74
2021/09/30 07:25:04;;;;;;;3.08;1.00;;;;;;;11.67;72.52;101700.34;4977368;28;20408;-75
2021/09/30 07:27:30;;;;;;;2.30;1.30;;;;;;;11.80;72.37;101703.81;4971080;28;20466;-75
2021/09/30 07:29:55;;;;;;;2.85;1.15;;;;;;;11.92;72.00;101702.03;4974684;28;20887;-75
2021/09/30 07:32:22;;;;;;;6.13;1.30;;;;;;;12.04;70.84;101706.72;4970106;28;20487;-74
2021/09/30 07:34:47;;;;;;;4.40;1.30;;;;;;;12.02;71.19;101706.13;4973797;28;20412;-75
2021/09/30 07:37:12;;;;;;;1.70;0.93;;;;;;;12.03;71.56;101703.19;4971065;28;20462;-74
2021/09/30 07:39:38;;;;;;;4.17;1.50;;;;;;;12.08;71.64;101707.94;4972540;28;20511;-75
2021/09/30 07:42:03;;;;;;;3.97;1.47;;;;;;;12.20;71.17;101698.00;4974344;28;20424;-75
2021/09/30 07:44:32;;;;;;;5.33;1.67;;;;;;;12.33;70.57;101695.97;4972014;28;20435;-75
2021/09/30 07:46:58;;;;;;;4.60;1.20;;;;;;;12.44;70.85;101697.94;4973698;28;20503;-75
2021/09/30 07:49:23;;;;;;;1.47;0.60;;;;;;;12.44;70.68;101695.22;4972062;28;20493;-75
2021/09/30 07:51:48;;;;;;;2.47;1.03;;;;;;;12.50;70.82;101690.75;4970224;28;20412;-75
2021/09/30 07:54:14;;;;;;;3.20;1.13;;;;;;;12.48;70.49;101690.97;4970151;28;20400;-76
2021/09/30 07:56:39;;;;;;;4.22;1.10;;;;;;;12.46;70.64;101695.81;4973250;28;20455;-75
2021/09/30 07:59:05;;;;;;;4.83;1.13;;;;;;;12.46;70.70;101694.97;4972596;28;20887;-75
2021/09/30 08:01:31;;;;;;;3.60;1.00;;;;;;;12.57;70.73;101693.38;4974554;28;21044;-75
2021/09/30 08:03:58;;;;;;;3.63;1.07;;;;;;;12.59;70.65;101693.97;4975336;28;20415;-75
2021/09/30 08:06:23;;;;;;;4.30;1.20;;;;;;;12.59;70.84;101694.81;4974239;28;20406;-74
2021/09/30 08:08:48;;;;;;;2.95;1.02;;;;;;;12.60;71.00;101698.38;4972943;28;20399;-75
2021/09/30 08:11:14;;;;;;;1.60;1.00;;;;;;;12.60;71.03;101691.03;4973385;28;20796;-75
2021/09/30 08:13:39;;;;;;;2.60;1.03;;;;;;;12.57;71.02;101683.34;4965225;28;20414;-75
2021/09/30 08:16:05;;;;;;;4.93;1.60;;;;;;;12.62;71.01;101685.38;4995103;28;20430;-75
2021/09/30 08:18:31;;;;;;;3.17;0.90;;;;;;;12.73;70.81;101682.72;4974273;28;20452;-75
2021/09/30 08:20:57;;;;;;;3.40;0.80;;;;;;;12.85;70.09;101689.03;4972032;28;20792;-75
2021/09/30 08:23:24;;;;;;;3.27;1.47;;;;;;;12.88;70.51;101677.69;4967466;28;20396;-74
2021/09/30 08:25:50;;;;;;;2.80;1.02;;;;;;;12.85;70.45;101671.88;4970611;28;20551;-74
2021/09/30 08:28:17;;;;;;;4.15;1.15;;;;;;;12.90;69.92;101682.91;4971246;28;20424;-74
2021/09/30 08:30:42;;;;;;;2.20;0.80;;;;;;;12.84;70.17;101689.28;5004879;28;20408;-75
2021/09/30 08:33:09;;;;;;;4.27;1.07;;;;;;;12.81;70.45;101681.56;4974302;28;20717;-75
2021/09/30 08:35:35;;;;;;;2.75;1.13;;;;;;;12.77;70.45;101681.22;4965619;28;20505;-75
2021/09/30 08:38:00;;;;;;;3.10;0.98;;;;;;;12.74;70.75;101678.13;4972802;28;20397;-75
2021/09/30 08:40:25;;;;;;;4.05;1.17;;;;;;;12.71;70.83;101675.84;4965845;28;20443;-75
2021/09/30 08:42:51;;;;;;;3.50;1.30;;;;;;;12.66;70.67;101681.13;4969350;28;20410;-74
2021/09/30 08:45:20;;;;;;;4.30;0.80;;;;;;;12.70;70.03;101674.19;4972924;28;20495;-75
2021/09/30 08:47:54;;;;;;;2.47;0.90;;;;;;;12.69;69.94;101673.34;4973356;28;20400;-75
2021/09/30 08:50:19;;;;;;;3.92;0.93;;;;;;;12.75;69.75;101664.25;4973759;28;20721;-74
2021/09/30 08:52:44;;;;;;;2.50;1.13;;;;;;;12.81;69.26;101663.34;4970808;28;20411;-75
2021/09/30 08:55:10;;;;;;;4.00;1.63;;;;;;;12.94;69.60;101667.78;4971360;28;20467;-75
2021/09/30 08:57:35;;;;;;;2.95;1.00;;;;;;;13.02;68.47;101665.56;4970230;28;20411;-75
2021/09/30 09:00:08;;;;;;;4.23;1.27;;;;;;;13.03;68.19;101663.69;4965490;28;20466;-74
2021/09/30 09:02:51;;;;;;;2.78;1.15;;;;;;;13.01;68.13;101663.88;4968232;28;20428;-75
2021/09/30 09:05:17;;;;;;;4.43;1.27;;;;;;;13.14;67.66;101665.63;4969606;28;20400;-74
2021/09/30 09:08:03;;;;;;;4.63;1.47;;;;;;;13.28;66.61;101655.34;4973985;28;20901;-74
2021/09/30 09:10:31;;;;;;;4.32;1.25;;;;;;;13.41;65.40;101660.59;4964960;28;20763;-74
2021/09/30 09:13:05;;;;;;;1.58;0.80;;;;;;;13.47;65.56;101655.03;4969335;28;20426;-74
2021/09/30 09:15:54;;;;;;;4.53;1.35;;;;;;;13.57;66.07;101657.16;4968527;28;20911;-74
2021/09/30 09:18:23;;;;;;;3.60;1.08;;;;;;;13.71;65.63;101661.34;4959712;28;20406;-75
2021/09/30 09:21:09;;;;;;;6.43;0.80;;;;;;;13.99;63.15;101650.53;4985824;28;20404;-75
2021/09/30 09:23:59;;;;;;;2.90;0.70;;;;;;;14.18;63.39;101655.84;4964576;28;20408;-75
2021/09/30 09:26:33;;;;;;;3.85;1.20;;;;;;;14.25;63.86;101654.66;4964738;28;20859;-75
2021/09/30 09:29:06;;;;;;;4.20;0.95;;;;;;;14.34;63.58;101655.97;4973471;28;20404;-74
2021/09/30 09:31:37;;;;;;;4.72;0.90;;;;;;;14.47;62.37;101652.97;4969961;28;20400;-75
2021/09/30 09:34:17;;;;;;;2.88;0.98;;;;;;;14.66;62.03;101650.06;4970081;28;20989;-74
2021/09/30 09:36:43;;;;;;;2.70;0.85;;;;;;;14.78;61.02;101650.88;4971006;28;20456;-74
2021/09/30 09:39:09;;;;;;;2.97;0.80;;;;;;;14.94;60.01;101642.72;4971436;28;20562;-75
2021/09/30 09:41:35;;;;;;;1.10;0.80;;;;;;;14.96;60.75;101651.47;4964847;28;20404;-74
2021/09/30 09:44:03;;;;;;;1.80;0.77;;;;;;;14.89;61.30;101656.25;4963225;28;20501;-74
2021/09/30 09:46:40;;;;;;;2.45;1.30;;;;;;;14.91;61.70;101645.09;4972392;28;20404;-74
2021/09/30 09:49:19;;;;;;;3.50;1.37;;;;;;;15.02;61.37;101644.19;4969457;28;20487;-75
2021/09/30 09:51:51;;;;;;;3.55;0.80;;;;;;;15.25;61.03;101651.44;4971658;28;20423;-75
2021/09/30 09:54:20;;;;;;;1.50;0.70;;;;;;;15.79;60.97;101639.78;4972576;28;20413;-75
2021/09/30 09:56:48;;;;;;;3.30;1.20;;;;;;;16.35;56.28;101629.63;4970388;28;20446;-75
2021/09/30 09:59:27;;;;;;;3.65;1.10;;;;;;;16.30;54.55;101630.38;4970071;28;20406;-74
2021/09/30 10:01:53;;;;;;;2.47;0.90;;;;;;;16.14;55.91;101642.19;4973043;28;20400;-74
2021/09/30 10:04:19;;;;;;;3.53;0.90;;;;;;;16.13;55.89;101632.34;4970240;28;20495;-75
2021/09/30 10:06:44;;;;;;;8.25;0.77;;;;;;;16.36;55.42;101631.28;4966124;28;20408;-75
2021/09/30 10:09:11;;;;;;;4.37;1.20;;;;;;;16.72;55.45;101633.38;4974842;28;20825;-75
2021/09/30 10:11:37;;;;;;;2.75;1.20;;;;;;;17.40;53.63;101629.91;4968232;28;20401;-75
2021/09/30 10:14:05;;;;;;;2.38;0.63;;;;;;;17.99;51.87;101624.31;4970744;28;20744;-75
2021/09/30 10:16:31;;;;;;;3.08;0.80;;;;;;;18.61;50.18;101624.34;4972433;28;20895;-75
2021/09/30 10:19:07;;;;;;;2.00;0.70;;;;;;;19.36;47.47;101620.09;4971335;28;20408;-75
2021/09/30 10:21:34;;;;;;;4.07;0.88;;;;;;;19.83;41.87;101617.84;4971478;28;20400;-75
2021/09/30 10:24:03;;;;;;;2.35;0.65;;;;;;;20.33;42.44;101622.41;4967416;28;21032;-75
2021/09/30 10:26:32;;;;;;;2.10;0.90;;;;;;;20.71;43.37;101618.09;4971945;28;20408;-75
2021/09/30 10:28:59;;;;;;;4.13;1.10;;;;;;;20.82;42.85;101625.16;4972390;28;20411;-75
2021/09/30 10:31:26;;;;;;;4.55;0.90;;;;;;;20.60;41.80;101628.34;4977855;28;20442;-75
2021/09/30 10:33:53;;;;;;;6.20;1.00;;;;;;;20.75;42.59;101621.91;4966197;28;20413;-75
2021/09/30 10:36:31;;;;;;;2.47;0.60;;;;;;;20.81;42.64;101619.97;4975566;28;20907;-74
2021/09/30 10:39:16;;;;;;;3.70;1.15;;;;;;;20.45;42.71;101614.63;4969008;28;20404;-75
2021/09/30 10:41:41;;;;;;;2.20;0.93;;;;;;;20.70;40.48;101620.03;4969329;28;20416;-75
2021/09/30 10:44:34;;;;;;;3.20;1.00;;;;;;;20.12;40.81;101612.56;4973928;28;20416;-74
2021/09/30 10:47:07;;;;;;;3.33;1.00;;;;;;;19.16;44.24;101613.44;4960914;28;20404;-75
2021/09/30 10:49:39;;;;;;;1.73;0.70;;;;;;;18.37;45.96;101612.16;4968797;28;20392;-75
2021/09/30 10:52:25;;;;;;;3.67;0.85;;;;;;;17.46;48.39;101608.84;4970686;28;20926;-74
2021/09/30 10:55:02;;;;;;;6.15;1.13;;;;;;;17.23;48.84;101606.47;4966226;28;20425;-75
2021/09/30 10:57:45;;;;;;;4.40;0.77;;;;;;;18.49;46.68;101612.75;4981579;28;20565;-74
2021/09/30 11:00:17;;;;;;;1.70;0.60;;;;;;;19.72;42.66;101609.91;4986834;28;20709;-75
2021/09/30 11:03:10;;;;;;;3.53;0.70;;;;;;;19.55;41.64;101611.03;4967367;28;20454;-75
2021/09/30 11:05:38;;;;;;;1.38;0.68;;;;;;;21.03;37.59;101601.91;4970075;28;20412;-75
2021/09/30 11:08:24;;;;;;;2.17;0.50;;;;;;;21.14;37.14;101595.22;4970103;28;20443;-75
2021/09/30 11:11:01;;;;;;;2.22;0.70;;;;;;;19.60;40.87;101599.19;4970465;28;20473;-75
2021/09/30 11:13:30;;;;;;;1.88;1.10;;;;;;;20.78;39.50;101599.28;4969485;28;20408;-75
2021/09/30 11:16:18;;;;;;;1.65;0.47;;;;;;;22.54;34.98;101593.19;4977430;28;20424;-74
2021/09/30 11:18:54;;;;;;;2.15;0.63;;;;;;;23.52;31.82;101606.06;4975833;28;20418;-75
2021/09/30 11:21:29;;;;;;;6.03;0.88;;;;;;;23.91;32.35;101598.13;4973545;28;20435;-75
2021/09/30 11:23:56;;;;;;;1.27;0.55;;;;;;;21.89;35.40;101595.66;5000274;28;20416;-74
2021/09/30 11:26:21;;;;;;;2.10;0.80;;;;;;;20.50;39.77;101591.75;4957049;28;20533;-74
2021/09/30 11:28:47;;;;;;;1.97;0.60;;;;;;;20.81;40.02;101589.66;4967698;28;20404;-74
2021/09/30 11:31:29;;;;;;;1.97;0.70;;;;;;;20.98;39.48;101577.13;4967596;28;20892;-75
2021/09/30 11:33:57;;;;;;;2.33;0.60;;;;;;;20.58;40.38;101578.22;4969123;28;20415;-75
2021/09/30 11:36:38;;;;;;;1.52;0.47;;;;;;;19.96;41.58;101567.72;4973355;28;20502;-75
2021/09/30 11:39:08;;;;;;;2.30;0.70;;;;;;;20.00;42.86;101563.31;4972199;28;20895;-76
2021/09/30 11:41:41;;;;;;;6.57;0.70;;;;;;;20.41;42.56;101566.75;4968119;28;20419;-76
2021/09/30 11:44:07;;;;;;;2.20;0.88;;;;;;;20.58;41.58;101575.44;4997678;28;20451;-74
2021/09/30 11:46:38;;;;;;;2.05;0.40;;;;;;;19.97;42.48;101568.56;4981080;28;20402;-74
2021/09/30 11:49:13;;;;;;;3.40;0.52;;;;;;;18.95;43.25;101572.50;4986607;28;20398;-74
2021/09/30 11:51:56;;;;;;;1.57;0.60;;;;;;;18.16;44.64;101564.59;4977330;28;20415;-75
2021/09/30 11:54:33;;;;;;;0.93;0.50;;;;;;;18.12;45.86;101550.59;4971889;28;20408;-74
2021/09/30 11:56:59;;;;;;;1.02;0.60;;;;;;;18.94;43.16;101549.72;4976611;28;20415;-74
2021/09/30 11:59:26;;;;;;;2.55;0.40;;;;;;;19.80;41.75;101535.88;5015514;28;20414;-75
2021/09/30 12:01:56;;;;;;;2.00;0.30;;;;;;;20.40;39.04;101545.00;4968838;28;20531;-74
2021/09/30 12:04:43;;;;;;;1.07;0.50;;;;;;;20.31;38.60;101530.19;4974451;28;20780;-74
2021/09/30 12:07:24;;;;;;;1.65;0.50;;;;;;;19.78;40.10;101520.75;4972524;28;20467;-74
2021/09/30 12:09:55;;;;;;;2.50;0.52;;;;;;;19.38;40.38;101525.22;5002313;28;20416;-74
2021/09/30 12:12:35;;;;;;;1.77;0.90;;;;;;;19.26;40.13;101518.38;4986865;28;20417;-74
2021/09/30 12:15:03;;;;;;;1.20;0.30;;;;;;;19.81;41.99;101515.53;4983231;28;20412;-74
2021/09/30 12:17:31;;;;;;;1.90;0.57;;;;;;;21.76;36.90;101515.47;4976723;28;20400;-74
2021/09/30 12:19:56;;;;;;;2.00;0.80;;;;;;;23.51;33.95;101518.66;4974050;28;20505;-74
2021/09/30 12:22:25;;;;;;;1.93;0.70;;;;;;;24.35;30.69;101511.66;4977697;28;20502;-74
2021/09/30 12:24:53;;;;;;;2.60;0.68;;;;;;;24.55;31.76;101516.72;4969244;28;20394;-75
2021/09/30 12:27:21;;;;;;;0.60;0.32;;;;;;;24.63;31.37;101510.44;4971309;28;20404;-74
2021/09/30 12:29:50;;;;;;;1.25;0.55;;;;;;;24.77;31.79;101502.88;4971364;28;20510;-74
2021/09/30 12:32:18;;;;;;;2.42;0.73;;;;;;;25.12;30.55;101503.16;4972540;28;20710;-75
2021/09/30 12:34:53;;;;;;;2.58;0.70;;;;;;;25.17;31.60;101500.25;4971709;28;20420;-75
2021/09/30 12:37:26;;;;;;;1.07;0.47;;;;;;;25.26;31.89;101496.38;4973029;28;20400;-74
2021/09/30 12:40:18;;;;;;;2.55;0.93;;;;;;;25.37;31.41;101491.38;4969728;28;20416;-73
2021/09/30 12:43:08;;;;;;;2.10;0.55;;;;;;;25.96;30.19;101483.63;4970968;28;20966;-73
2021/09/30 12:45:37;;;;;;;1.17;0.57;;;;;;;26.26;29.24;101486.31;4970858;28;20412;-73
2021/09/30 12:48:11;;;;;;;2.03;0.82;;;;;;;26.33;29.22;101485.84;4970305;28;20444;-73
2021/09/30 12:50:40;;;;;;;2.08;0.50;;;;;;;26.16;28.92;101475.53;4970918;28;20419;-74
2021/09/30 12:53:06;;;;;;;2.40;0.70;;;;;;;25.67;29.25;101481.41;4964517;28;20904;-73
2021/09/30 12:55:32;;;;;;;3.75;0.63;;;;;;;25.23;30.07;101474.81;4967242;28;20496;-73
2021/09/30 12:57:57;;;;;;;0.70;0.70;;;;;;;24.72;29.88;101472.53;4974078;28;20439;-73
2021/09/30 13:00:24;;;;;;;1.53;0.60;;;;;;;24.01;31.60;101462.25;4971744;28;20462;-73
2021/09/30 13:02:55;;;;;;;2.00;0.70;;;;;;;23.36;32.75;101463.56;4965942;28;20413;-74
2021/09/30 13:05:21;;;;;;;2.47;0.75;;;;;;;22.20;35.25;101458.88;4970953;28;20408;-74
2021/09/30 13:07:55;;;;;;;1.33;0.50;;;;;;;21.51;37.04;101464.16;4969677;28;20414;-74
2021/09/30 13:10:30;;;;;;;0.70;0.60;;;;;;;20.96;37.05;101460.84;4970336;28;20481;-74
2021/09/30 13:13:12;;;;;;;1.83;0.60;;;;;;;20.42;37.68;101460.19;4963294;28;20416;-74
2021/09/30 13:15:45;;;;;;;2.92;0.80;;;;;;;20.17;38.63;101456.47;4972612;28;20520;-74
2021/09/30 13:18:13;;;;;;;3.70;0.60;;;;;;;19.95;39.03;101458.81;4968432;28;20426;-74
2021/09/30 13:20:40;;;;;;;4.85;0.75;;;;;;;19.85;37.00;101456.09;4972958;28;20483;-74
2021/09/30 13:23:06;;;;;;;2.38;0.80;;;;;;;19.86;38.57;101460.47;4967827;28;20420;-74
2021/09/30 13:25:32;;;;;;;1.80;0.37;;;;;;;19.56;39.40;101450.44;4973610;28;20811;-73
2021/09/30 13:27:58;;;;;;;7.65;1.30;;;;;;;19.48;37.69;101448.28;4971317;28;20769;-73
2021/09/30 13:30:28;;;;;;;2.58;0.57;;;;;;;19.56;39.47;101438.63;4979709;28;20408;-73
2021/09/30 13:32:57;;;;;;;3.60;1.07;;;;;;;19.51;39.46;101435.88;4971660;28;20430;-74
2021/09/30 13:35:25;;;;;;;4.32;0.77;;;;;;;19.43;40.51;101433.72;4968767;28;20473;-76
2021/09/30 13:37:52;;;;;;;2.70;0.67;;;;;;;19.30;41.95;101426.84;4973019;28;20412;-77
2021/09/30 13:40:18;;;;;;;2.45;0.55;;;;;;;19.01;39.74;101423.06;4973271;28;20466;-74
2021/09/30 13:42:43;;;;;;;1.05;0.50;;;;;;;18.82;41.88;101417.34;4973615;28;20884;-75
2021/09/30 13:45:12;;;;;;;2.10;0.80;;;;;;;18.80;41.26;101413.22;4972385;28;20880;-75
2021/09/30 13:47:38;;;;;;;3.03;0.70;;;;;;;18.77;42.06;101411.03;4973921;28;20752;-75
2021/09/30 13:50:05;;;;;;;3.07;0.50;;;;;;;18.79;42.05;101414.31;4968721;28;20408;-75
2021/09/30 13:52:30;;;;;;;3.90;0.60;;;;;;;18.72;42.18;101403.63;4972690;28;20396;-74
2021/09/30 13:54:56;;;;;;;1.50;0.60;;;;;;;18.70;41.61;101405.81;4973299;28;20400;-75
2021/09/30 13:57:21;;;;;;;1.63;0.83;;;;;;;18.59;39.73;101395.94;4973062;28;20399;-75
2021/09/30 13:59:46;;;;;;;2.72;0.70;;;;;;;18.51;41.37;101393.72;4971024;28;20561;-75
2021/09/30 14:02:11;;;;;;;2.13;1.30;;;;;;;18.41;41.44;101402.75;4965908;28;20809;-74
2021/09/30 14:04:38;;;;;;;4.53;0.70;;;;;;;18.25;42.13;101394.78;4965531;28;20928;-75
2021/09/30 14:07:05;;;;;;;2.45;0.77;;;;;;;18.15;43.26;101401.09;4968459;28;20460;-75
2021/09/30 14:09:32;;;;;;;0.98;0.60;;;;;;;18.09;43.33;101388.47;4963405;28;20414;-73
2021/09/30 14:11:58;;;;;;;1.20;0.47;;;;;;;17.99;43.08;101391.19;4962289;28;20505;-75
2021/09/30 14:14:23;;;;;;;2.83;0.60;;;;;;;17.92;43.92;101385.13;4958654;28;20832;-75
2021/09/30 14:16:49;;;;;;;1.07;0.50;;;;;;;17.84;43.61;101393.91;4971824;28;20416;-75
2021/09/30 14:19:18;;;;;;;2.13;0.70;;;;;;;17.77;44.08;101385.94;4965342;28;20412;-75
2021/09/30 14:21:44;;;;;;;1.92;0.57;;;;;;;17.71;44.46;101384.28;4973112;28;20388;-75